Time;durP1;ratioP1;P1;durP2;ratioP2;P2;SDS_P1;SDS_P2;PMS_P1;PMS_P2;Temp;Humidity;BMP_temperature;BMP_pressure;BME280_temperature;BME280_humidity;BME280_pressure;Samples;Min_cycle;Max_cycle;Signal;HPM_P1;HPM_P2
2022/03/01 00:01:46;;;;;;;;;;;;;;;4.03;67.04;102826.56;5006272;28;20391;-71
2022/03/01 00:04:11;;;;;;;;;;;;;;;4.04;66.98;102837.88;5008402;28;19921;-70
2022/03/01 00:06:37;;;;;;;;;;;;;;;4.00;67.36;102826.56;5009313;28;19922;-69
2022/03/01 00:09:02;;;;;;;;;;;;;;;4.01;67.22;102830.91;5008017;28;20292;-73
2022/03/01 00:11:28;;;;;;;;;;;;;;;4.02;67.35;102829.16;5003873;28;19983;-72
2022/03/01 00:13:53;;;;;;;;;;;;;;;3.99;67.42;102827.41;5008611;28;20347;-75
2022/03/01 00:16:19;;;;;;;;;;;;;;;4.04;67.48;102827.47;5008695;28;19917;-72
2022/03/01 00:18:45;;;;;;;;;;;;;;;4.05;67.36;102831.81;5006415;28;19917;-70
2022/03/01 00:21:10;;;;;;;;;;;;;;;3.98;67.87;102822.16;5009136;28;19932;-73
2022/03/01 00:23:36;;;;;;;;;;;;;;;4.08;67.63;102834.44;5009164;28;19929;-72
2022/03/01 00:26:01;;;;;;;;;;;;;;;4.01;67.95;102832.63;5007522;28;19921;-69
2022/03/01 00:28:26;;;;;;;;;;;;;;;3.99;68.03;102834.31;5009282;28;19921;-69
2022/03/01 00:30:52;;;;;;;;;;;;;;;3.98;68.23;102832.56;5009710;28;20636;-69
2022/03/01 00:33:17;;;;;;;;;;;;;;;3.95;68.59;102832.56;5013353;28;19922;-70
2022/03/01 00:35:42;;;;;;;;;;;;;;;3.96;68.50;102829.97;5008518;28;19922;-71
2022/03/01 00:38:07;;;;;;;;;;;;;;;3.94;68.75;102831.66;5007352;28;19967;-69
2022/03/01 00:40:33;;;;;;;;;;;;;;;3.95;68.60;102836.00;5009157;28;20308;-73
2022/03/01 00:42:58;;;;;;;;;;;;;;;3.92;68.76;102835.09;5008457;28;19917;-74
2022/03/01 00:45:24;;;;;;;;;;;;;;;3.93;69.06;102829.03;5008270;28;19979;-72
2022/03/01 00:47:49;;;;;;;;;;;;;;;3.90;69.37;102829.88;5009800;28;19933;-72
2022/03/01 00:50:14;;;;;;;;;;;;;;;3.95;68.87;102833.41;5006911;28;19969;-73
2022/03/01 00:52:40;;;;;;;;;;;;;;;3.95;69.25;102833.41;5008791;28;19928;-72
2022/03/01 00:55:06;;;;;;;;;;;;;;;3.96;68.59;102826.50;5004607;28;19921;-70
2022/03/01 00:57:31;;;;;;;;;;;;;;;3.98;69.15;102835.16;5003085;28;19925;-72
2022/03/01 00:59:57;;;;;;;;;;;;;;;3.97;69.17;102833.44;5006302;28;19929;-73
2022/03/01 01:02:22;;;;;;;;;;;;;;;3.91;69.31;102826.44;5005177;28;19936;-73
2022/03/01 01:04:47;;;;;;;;;;;;;;;3.93;69.31;102818.66;5009545;28;19952;-76
2022/03/01 01:07:13;;;;;;;;;;;;;;;3.94;69.38;102818.66;5003366;28;19940;-72
2022/03/01 01:09:38;;;;;;;;;;;;;;;3.92;69.33;102822.09;5007573;28;20015;-71
2022/03/01 01:12:04;;;;;;;;;;;;;;;3.83;69.91;102812.44;5004376;28;20575;-74
2022/03/01 01:14:29;;;;;;;;;;;;;;;3.80;69.81;102821.06;5008623;28;19922;-75
2022/03/01 01:16:54;;;;;;;;;;;;;;;3.76;70.37;102824.47;5007744;28;19917;-73
2022/03/01 01:19:19;;;;;;;;;;;;;;;3.73;70.08;102816.66;5002801;28;19925;-72
2022/03/01 01:24:26;;;;;;;;;;;;;;;3.65;70.44;102811.34;5003605;28;20380;-72
2022/03/01 01:26:51;;;;;;;;;;;;;;;3.66;70.71;102809.59;5007622;28;19918;-71
2022/03/01 01:29:16;;;;;;;;;;;;;;;3.67;70.47;102808.75;5003895;28;19926;-72
2022/03/01 01:31:41;;;;;;;;;;;;;;;3.69;70.26;102813.13;5004930;28;19991;-72
2022/03/01 01:34:07;;;;;;;;;;;;;;;3.68;70.35;102808.81;5019355;28;19921;-73
2022/03/01 01:36:32;;;;;;;;;;;;;;;3.64;70.43;102804.41;5005196;28;19946;-74
2022/03/01 01:38:57;;;;;;;;;;;;;;;3.63;70.54;102801.78;5003500;28;19957;-73
2022/03/01 01:41:23;;;;;;;;;;;;;;;3.65;70.49;102795.75;5007153;28;19933;-77
2022/03/01 01:43:48;;;;;;;;;;;;;;;3.64;70.47;102800.94;5007641;28;19963;-75
2022/03/01 01:46:13;;;;;;;;;;;;;;;3.68;70.58;102802.72;5001110;28;19944;-75
2022/03/01 01:48:38;;;;;;;;;;;;;;;3.69;70.11;102802.72;5004429;28;19925;-72
2022/03/01 01:51:04;;;;;;;;;;;;;;;3.74;69.79;102807.13;5003197;28;19922;-72
2022/03/01 01:53:29;;;;;;;;;;;;;;;3.79;69.62;102803.72;5001988;28;19918;-74
2022/03/01 01:55:54;;;;;;;;;;;;;;;3.81;69.53;102802.03;5002172;28;19988;-72
2022/03/01 01:58:20;;;;;;;;;;;;;;;3.86;69.22;102795.16;4998395;28;19964;-71
2022/03/01 02:00:45;;;;;;;;;;;;;;;3.89;69.38;102796.94;5005178;28;19948;-71
2022/03/01 02:03:10;;;;;;;;;;;;;;;3.97;68.85;102794.44;5003386;28;19918;-72
2022/03/01 02:05:36;;;;;;;;;;;;;;;4.00;68.79;102794.44;4996546;28;19918;-73
2022/03/01 02:08:01;;;;;;;;;;;;;;;4.05;68.69;102779.78;5006220;28;19921;-72
2022/03/01 02:10:27;;;;;;;;;;;;;;;4.05;68.59;102785.00;5000495;28;20573;-71
2022/03/01 02:12:52;;;;;;;;;;;;;;;4.11;68.36;102779.84;4994994;28;19973;-72
2022/03/01 02:15:18;;;;;;;;;;;;;;;4.13;68.10;102779.88;4996825;28;19917;-71
2022/03/01 02:17:43;;;;;;;;;;;;;;;4.15;68.10;102779.03;4999348;28;19949;-73
2022/03/01 02:20:11;;;;;;;;;;;;;;;4.21;67.78;102785.16;4997864;28;19922;-75
2022/03/01 02:22:36;;;;;;;;;;;;;;;4.21;67.66;102773.03;5015079;28;19921;-75
2022/03/01 02:25:01;;;;;;;;;;;;;;;4.27;67.85;102774.84;5017116;28;19971;-74
2022/03/01 02:27:26;;;;;;;;;;;;;;;4.33;67.75;102778.38;5015932;28;19917;-72
2022/03/01 02:29:52;;;;;;;;;;;;;;;4.35;67.03;102778.38;5017386;28;20597;-73
2022/03/01 02:32:17;;;;;;;;;;;;;;;4.37;66.93;102774.06;5012545;28;19917;-72
2022/03/01 02:34:42;;;;;;;;;;;;;;;4.36;67.26;102774.91;5017250;28;19933;-74
2022/03/01 02:37:07;;;;;;;;;;;;;;;4.38;67.06;102768.00;5014497;28;19969;-73
2022/03/01 02:39:33;;;;;;;;;;;;;;;4.32;67.22;102771.44;5016931;28;19932;-73
2022/03/01 02:41:58;;;;;;;;;;;;;;;4.29;67.35;102776.59;5018020;28;20376;-75
2022/03/01 02:44:24;;;;;;;;;;;;;;;4.24;67.56;102774.78;5004067;28;19928;-75
2022/03/01 02:46:49;;;;;;;;;;;;;;;4.22;67.86;102779.09;5017274;28;19925;-74
2022/03/01 02:49:14;;;;;;;;;;;;;;;4.14;68.36;102779.00;5012406;28;19921;-74
2022/03/01 02:51:40;;;;;;;;;;;;;;;4.16;68.01;102779.91;5015542;28;19928;-75
2022/03/01 02:54:06;;;;;;;;;;;;;;;4.18;67.82;102779.09;5015933;28;19995;-74
2022/03/01 02:56:31;;;;;;;;;;;;;;;4.13;68.25;102775.53;5012629;28;19921;-75
2022/03/01 02:58:58;;;;;;;;;;;;;;;4.11;68.61;102774.66;5016564;28;20760;-70
2022/03/01 03:01:24;;;;;;;;;;;;;;;4.28;67.55;102769.63;5013551;28;19932;-74
2022/03/01 03:03:49;;;;;;;;;;;;;;;4.14;67.84;102764.28;5018678;28;19917;-76
2022/03/01 03:06:15;;;;;;;;;;;;;;;4.18;67.95;102760.88;5015314;28;20495;-74
2022/03/01 03:08:40;;;;;;;;;;;;;;;4.13;68.01;102762.53;5013709;28;19928;-73
2022/03/01 03:11:05;;;;;;;;;;;;;;;4.15;67.48;102765.16;5011656;28;19925;-73
2022/03/01 03:13:31;;;;;;;;;;;;;;;4.11;67.88;102761.63;5014758;28;19922;-73
2022/03/01 03:15:56;;;;;;;;;;;;;;;4.08;67.75;102765.94;5015325;28;20015;-72
2022/03/01 03:18:21;;;;;;;;;;;;;;;4.10;67.81;102770.28;5008302;28;20025;-74
2022/03/01 03:20:47;;;;;;;;;;;;;;;4.07;67.84;102767.69;5008580;28;19923;-74
2022/03/01 03:23:12;;;;;;;;;;;;;;;4.21;67.47;102772.16;5006546;28;20329;-72
2022/03/01 03:25:37;;;;;;;;;;;;;;;4.15;67.79;102773.84;5037720;28;19995;-73
2022/03/01 03:28:03;;;;;;;;;;;;;;;4.19;67.73;102772.13;5006489;28;19922;-73
2022/03/01 03:30:28;;;;;;;;;;;;;;;4.17;67.63;102771.25;5005791;28;20431;-74
2022/03/01 03:32:54;;;;;;;;;;;;;;;4.26;67.20;102775.69;5038357;28;19917;-72
2022/03/01 03:35:19;;;;;;;;;;;;;;;4.29;67.31;102778.31;5005580;28;19924;-73
2022/03/01 03:37:45;;;;;;;;;;;;;;;4.25;66.70;102774.78;5005726;28;19929;-72
2022/03/01 03:40:10;;;;;;;;;;;;;;;4.28;66.96;102769.63;5004582;28;20462;-72
2022/03/01 03:42:36;;;;;;;;;;;;;;;4.42;66.19;102751.56;5003454;28;20036;-73
2022/03/01 03:45:01;;;;;;;;;;;;;;;4.38;66.10;102754.09;5004172;28;19917;-73
2022/03/01 03:47:27;;;;;;;;;;;;;;;4.33;66.09;102757.56;4997975;28;19968;-72
2022/03/01 03:49:53;;;;;;;;;;;;;;;4.33;66.18;102757.56;5003702;28;20426;-72
2022/03/01 03:52:18;;;;;;;;;;;;;;;4.32;66.39;102761.00;5002371;28;19945;-72
2022/03/01 03:54:43;;;;;;;;;;;;;;;4.33;66.21;102764.47;5005604;28;20016;-72
2022/03/01 03:57:09;;;;;;;;;;;;;;;4.28;65.99;102761.81;5000005;28;20376;-72
2022/03/01 03:59:36;;;;;;;;;;;;;;;4.25;66.10;102767.00;5005857;28;20012;-73
2022/03/01 04:02:02;;;;;;;;;;;;;;;4.29;65.75;102770.53;4999683;28;19926;-74
2022/03/01 04:04:27;;;;;;;;;;;;;;;4.24;66.25;102765.28;5006331;28;19928;-73
2022/03/01 04:06:52;;;;;;;;;;;;;;;4.29;66.20;102760.97;5006237;28;20576;-72
2022/03/01 04:09:18;;;;;;;;;;;;;;;4.28;65.75;102755.75;5009657;28;19917;-74
2022/03/01 04:11:43;;;;;;;;;;;;;;;4.29;65.99;102757.50;4994773;28;20007;-74
2022/03/01 04:14:08;;;;;;;;;;;;;;;4.23;65.61;102752.22;4996253;28;20568;-72
2022/03/01 04:16:33;;;;;;;;;;;;;;;4.20;65.87;102765.19;5009211;28;19948;-73
2022/03/01 04:18:59;;;;;;;;;;;;;;;4.20;65.77;102763.47;5010135;28;19918;-73
2022/03/01 04:21:24;;;;;;;;;;;;;;;4.19;65.78;102769.53;5008381;28;20640;-74
2022/03/01 04:23:49;;;;;;;;;;;;;;;4.25;65.10;102760.94;5000993;28;19921;-74
2022/03/01 04:26:15;;;;;;;;;;;;;;;4.26;65.51;102754.88;4997727;28;19929;-73
2022/03/01 04:28:41;;;;;;;;;;;;;;;4.21;65.69;102760.03;5008877;28;20430;-72
2022/03/01 04:31:06;;;;;;;;;;;;;;;4.29;65.51;102760.13;5003510;28;19917;-75
2022/03/01 04:33:31;;;;;;;;;;;;;;;4.18;65.90;102755.66;4995229;28;19918;-75
2022/03/01 04:35:59;;;;;;;;;;;;;;;4.22;65.77;102745.28;4989787;28;19926;-72
2022/03/01 04:38:25;;;;;;;;;;;;;;;4.20;66.11;102745.28;4995331;28;19928;-73
2022/03/01 04:40:52;;;;;;;;;;;;;;;4.27;65.30;102731.47;4995905;28;20017;-73
2022/03/01 04:43:18;;;;;;;;;;;;;;;4.26;65.42;102734.06;4991751;28;19929;-73
2022/03/01 04:45:43;;;;;;;;;;;;;;;4.18;65.16;102739.16;5003944;28;19939;-73
2022/03/01 04:48:08;;;;;;;;;;;;;;;4.16;65.33;102740.88;4995642;28;20028;-73
2022/03/01 04:50:34;;;;;;;;;;;;;;;4.14;65.72;102743.47;5004978;28;19928;-73
2022/03/01 04:52:59;;;;;;;;;;;;;;;4.15;65.56;102750.44;4999970;28;19925;-73
2022/03/01 04:55:24;;;;;;;;;;;;;;;4.18;65.92;102750.47;4998787;28;19921;-73
2022/03/01 04:57:49;;;;;;;;;;;;;;;4.15;65.85;102746.94;5000599;28;19922;-73
2022/03/01 05:00:15;;;;;;;;;;;;;;;4.15;65.92;102747.81;4997448;28;19945;-72
2022/03/01 05:02:42;;;;;;;;;;;;;;;4.20;65.59;102741.78;5008117;28;20002;-73
2022/03/01 05:05:10;;;;;;;;;;;;;;;4.15;66.42;102745.22;4999158;28;19918;-73
2022/03/01 05:07:50;;;;;;;;;;;;;;;4.18;66.15;102750.47;5008443;28;19971;-73
2022/03/01 05:12:58;;;;;;;;;;;;;;;4.14;66.30;102743.47;5001288;28;19929;-73
2022/03/01 05:15:26;;;;;;;;;;;;;;;4.16;66.33;102743.47;5003905;28;19921;-71
2022/03/01 05:17:52;;;;;;;;;;;;;;;4.14;66.50;102747.78;5039828;28;19918;-73
2022/03/01 05:20:18;;;;;;;;;;;;;;;4.17;66.25;102740.91;5008429;28;19926;-72
2022/03/01 05:22:43;;;;;;;;;;;;;;;4.18;66.46;102733.97;5008667;28;20410;-72
2022/03/01 05:25:10;;;;;;;;;;;;;;;4.15;66.44;102740.03;5008483;28;19922;-72
2022/03/01 05:27:36;;;;;;;;;;;;;;;4.24;66.42;102735.75;5009794;28;19917;-72
2022/03/01 05:30:01;;;;;;;;;;;;;;;4.21;66.59;102738.31;5007449;28;19917;-72
2022/03/01 05:32:27;;;;;;;;;;;;;;;4.21;66.54;102735.72;4998726;28;20016;-75
2022/03/01 05:34:52;;;;;;;;;;;;;;;4.26;66.27;102739.25;5008091;28;20626;-75
2022/03/01 05:37:17;;;;;;;;;;;;;;;4.26;66.10;102737.50;5008034;28;19949;-76
2022/03/01 05:39:43;;;;;;;;;;;;;;;4.25;66.35;102738.38;5007823;28;20508;-75
2022/03/01 05:42:08;;;;;;;;;;;;;;;4.26;66.38;102737.50;5022428;28;19972;-76
2022/03/01 05:44:34;;;;;;;;;;;;;;;4.39;65.62;102735.94;5007871;28;19987;-74
2022/03/01 05:46:59;;;;;;;;;;;;;;;4.39;65.68;102729.84;5006964;28;19940;-73
2022/03/01 05:49:25;;;;;;;;;;;;;;;4.37;65.83;102734.16;5039139;28;19929;-73
2022/03/01 05:51:50;;;;;;;;;;;;;;;4.39;65.74;102740.25;5007954;28;19976;-73
2022/03/01 05:54:15;;;;;;;;;;;;;;;4.37;65.57;102742.84;5008217;28;19984;-74
2022/03/01 05:56:40;;;;;;;;;;;;;;;4.32;65.79;102748.00;5005394;28;19921;-74
2022/03/01 05:59:06;;;;;;;;;;;;;;;4.33;65.84;102748.84;5007845;28;20403;-73
2022/03/01 06:01:31;;;;;;;;;;;;;;;4.36;65.90;102735.88;5009132;28;19922;-74
2022/03/01 06:03:56;;;;;;;;;;;;;;;4.43;65.80;102742.03;5007440;28;19957;-74
2022/03/01 06:06:21;;;;;;;;;;;;;;;4.39;65.97;102735.94;5039048;28;20004;-74
2022/03/01 06:08:47;;;;;;;;;;;;;;;4.41;65.87;102736.78;5004912;28;19924;-75
2022/03/01 06:11:12;;;;;;;;;;;;;;;4.39;65.90;102738.53;5007137;28;19926;-75
2022/03/01 06:13:37;;;;;;;;;;;;;;;4.42;65.84;102748.94;5009498;28;19918;-75
2022/03/01 06:16:03;;;;;;;;;;;;;;;4.40;66.10;102744.59;5006117;28;20016;-76
2022/03/01 06:18:29;;;;;;;;;;;;;;;4.39;65.75;102756.75;5010035;28;19925;-84
2022/03/01 06:20:54;;;;;;;;;;;;;;;4.40;65.82;102752.41;5004281;28;19925;-83
2022/03/01 06:23:19;;;;;;;;;;;;;;;4.43;66.12;102757.66;5010302;28;19925;-84
2022/03/01 06:25:45;;;;;;;;;;;;;;;4.48;66.25;102762.03;5006492;28;19967;-83
2022/03/01 06:28:10;;;;;;;;;;;;;;;4.51;66.00;102753.38;5001321;28;20194;-83
2022/03/01 06:30:37;;;;;;;;;;;;;;;4.50;65.99;102754.22;5002435;28;19922;-81
2022/03/01 06:33:03;;;;;;;;;;;;;;;4.52;66.27;102762.94;5041749;28;19930;-81
2022/03/01 06:35:29;;;;;;;;;;;;;;;4.64;65.07;102759.56;4991568;28;20349;-81
2022/03/01 06:37:54;;;;;;;;;;;;;;;4.64;65.08;102767.38;5002523;28;19996;-82
2022/03/01 06:40:19;;;;;;;;;;;;;;;4.60;65.88;102776.03;5001348;28;19925;-81
2022/03/01 06:42:47;;;;;;;;;;;;;;;4.64;65.72;102776.06;5010227;28;19926;-77
2022/03/01 06:45:12;;;;;;;;;;;;;;;4.66;65.67;102780.44;5008842;28;19917;-81
2022/03/01 06:47:37;;;;;;;;;;;;;;;4.63;66.20;102782.13;5000803;28;20285;-81
2022/03/01 06:50:03;;;;;;;;;;;;;;;4.69;66.06;102789.13;5002710;28;20382;-80
2022/03/01 06:52:30;;;;;;;;;;;;;;;4.70;65.50;102787.38;5011606;28;19921;-81
2022/03/01 06:54:56;;;;;;;;;;;;;;;4.70;65.86;102798.69;5010424;28;19941;-81
2022/03/01 06:57:21;;;;;;;;;;;;;;;4.72;65.45;102796.09;5001028;28;19956;-81
2022/03/01 06:59:46;;;;;;;;;;;;;;;4.71;65.36;102792.63;5008160;28;20510;-77
2022/03/01 07:02:12;;;;;;;;;;;;;;;4.71;65.13;102795.22;5008479;28;19921;-81
2022/03/01 07:04:37;;;;;;;;;;;;;;;4.71;65.46;102809.97;5008975;28;20024;-76
2022/03/01 07:07:02;;;;;;;;;;;;;;;4.69;65.38;102811.69;5006916;28;19925;-75
2022/03/01 07:09:28;;;;;;;;;;;;;;;4.68;65.61;102821.22;5008618;28;20365;-78
2022/03/01 07:11:53;;;;;;;;;;;;;;;4.61;65.30;102822.03;5009058;28;19964;-74
2022/03/01 07:14:19;;;;;;;;;;;;;;;4.61;66.19;102820.28;5008850;28;20013;-80
2022/03/01 07:16:45;;;;;;;;;;;;;;;4.67;65.73;102814.28;5009370;28;19928;-87
2022/03/01 07:19:10;;;;;;;;;;;;;;;4.68;65.90;102810.81;5009104;28;19925;-85
2022/03/01 07:21:35;;;;;;;;;;;;;;;4.71;65.44;102810.84;5010369;28;20411;-84
2022/03/01 07:24:01;;;;;;;;;;;;;;;4.81;65.07;102806.59;5007916;28;19917;-81
2022/03/01 07:26:26;;;;;;;;;;;;;;;4.79;65.03;102817.00;5004602;28;20385;-82
2022/03/01 07:28:51;;;;;;;;;;;;;;;4.79;65.02;102813.53;5006390;28;19921;-80
2022/03/01 07:31:17;;;;;;;;;;;;;;;4.84;65.26;102805.78;5006099;28;19917;-79
2022/03/01 07:33:43;;;;;;;;;;;;;;;4.88;64.65;102810.13;5000832;28;19963;-82
2022/03/01 07:36:09;;;;;;;;;;;;;;;4.89;65.37;102817.97;5023394;28;19929;-78
2022/03/01 07:38:34;;;;;;;;;;;;;;;5.02;64.80;102816.34;5010776;28;19921;-78
2022/03/01 07:40:59;;;;;;;;;;;;;;;5.02;65.46;102821.53;5006928;28;19968;-78
2022/03/01 07:43:25;;;;;;;;;;;;;;;5.06;65.20;102820.72;5006768;28;20020;-81
2022/03/01 07:45:50;;;;;;;;;;;;;;;5.05;64.68;102825.91;4992690;28;19929;-81
2022/03/01 07:48:15;;;;;;;;;;;;;;;5.01;64.02;102816.34;4991295;28;19933;-80
2022/03/01 07:50:40;;;;;;;;;;;;;;;5.00;64.26;102814.59;5001320;28;19918;-81
2022/03/01 07:53:06;;;;;;;;;;;;;;;5.00;65.32;102815.44;5011923;28;19963;-79
2022/03/01 07:55:31;;;;;;;;;;;;;;;5.06;64.76;102825.94;5013028;28;19926;-82
2022/03/01 07:57:56;;;;;;;;;;;;;;;5.06;65.61;102818.13;5016752;28;20433;-80
2022/03/01 08:00:23;;;;;;;;;;;;;;;5.18;65.79;102824.28;5011293;28;19936;-82
2022/03/01 08:02:49;;;;;;;;;;;;;;;5.20;65.66;102830.34;5009798;28;20012;-81
2022/03/01 08:05:14;;;;;;;;;;;;;;;5.23;66.65;102849.53;5007141;28;20005;-82
2022/03/01 08:07:39;;;;;;;;;;;;;;;5.21;67.55;102845.13;5008422;28;19917;-83
2022/03/01 08:10:05;;;;;;;;;;;;;;;5.26;67.89;102849.53;5014274;28;20010;-83
2022/03/01 08:12:30;;;;;;;;;;;;;;;5.30;70.23;102862.59;5025864;28;19929;-80
2022/03/01 08:14:56;;;;;;;;;;;;;;;5.14;70.90;102859.84;5026837;28;19953;-81
2022/03/01 08:17:21;;;;;;;;;;;;;;;5.00;71.85;102864.94;5018773;28;19925;-78
2022/03/01 08:19:47;;;;;;;;;;;;;;;4.93;72.08;102858.78;5028364;28;19929;-78
2022/03/01 08:22:12;;;;;;;;;;;;;;;5.04;71.62;102860.63;5012635;28;20291;-80
2022/03/01 08:24:38;;;;;;;;;;;;;;;5.08;72.25;102860.66;5017297;28;19925;-80
2022/03/01 08:27:03;;;;;;;;;;;;;;;5.12;72.00;102859.00;5020180;28;20004;-79
2022/03/01 08:29:29;;;;;;;;;;;;;;;5.15;71.39;102860.75;5014454;28;19924;-77
2022/03/01 08:31:54;;;;;;;;;;;;;;;5.21;72.12;102858.16;5019418;28;20786;-77
2022/03/01 08:34:20;;;;;;;;;;;;;;;5.22;72.02;102866.03;5014587;28;20012;-78
2022/03/01 08:36:45;;;;;;;;;;;;;;;5.19;72.79;102871.19;5016979;28;19932;-79
2022/03/01 08:39:10;;;;;;;;;;;;;;;5.19;73.82;102860.78;5010843;28;19921;-79
2022/03/01 08:41:36;;;;;;;;;;;;;;;5.09;72.79;102865.03;5016938;28;20004;-79
2022/03/01 08:44:01;;;;;;;;;;;;;;;5.18;72.48;102871.19;5002424;28;19922;-78
2022/03/01 08:46:27;;;;;;;;;;;;;;;5.05;72.32;102873.69;4991025;28;20008;-81
2022/03/01 08:51:33;;;;;;;;;;;;;;;5.01;72.72;102876.25;5007032;28;19968;-80
2022/03/01 08:53:59;;;;;;;;;;;;;;;5.01;73.29;102881.47;5007039;28;19929;-79
2022/03/01 08:56:24;;;;;;;;;;;;;;;5.04;72.25;102887.56;5006996;28;20004;-79
2022/03/01 08:58:50;;;;;;;;;;;;;;;5.04;73.15;102891.88;5008588;28;20027;-79
2022/03/01 09:01:15;;;;;;;;;;;;;;;5.20;72.95;102893.78;5005713;28;19929;-80
2022/03/01 09:03:41;;;;;;;;;;;;;;;5.41;72.95;102887.88;5008792;28;20364;-79
2022/03/01 09:06:06;;;;;;;;;;;;;;;5.48;73.02;102887.94;5008621;28;20399;-77
2022/03/01 09:08:32;;;;;;;;;;;;;;;5.31;71.72;102885.19;5009079;28;19922;-77
2022/03/01 09:10:58;;;;;;;;;;;;;;;5.41;71.86;102890.47;5001822;28;19922;-79
2022/03/01 09:13:23;;;;;;;;;;;;;;;5.39;72.94;102899.16;5007615;28;19918;-81
2022/03/01 09:15:48;;;;;;;;;;;;;;;5.30;72.99;102893.88;5008403;28;20498;-80
2022/03/01 09:18:14;;;;;;;;;;;;;;;5.26;72.82;102906.00;5007992;28;19972;-80
2022/03/01 09:20:39;;;;;;;;;;;;;;;5.28;73.15;102900.78;5009134;28;20399;-79
2022/03/01 09:23:04;;;;;;;;;;;;;;;5.28;73.51;102898.19;5008354;28;19941;-77
2022/03/01 09:25:30;;;;;;;;;;;;;;;5.48;73.67;102898.38;5006137;28;19921;-77
2022/03/01 09:27:55;;;;;;;;;;;;;;;5.63;74.23;102898.47;5009755;28;19917;-76
2022/03/01 09:30:21;;;;;;;;;;;;;;;5.88;72.57;102893.41;5007429;28;20024;-83
2022/03/01 09:32:46;;;;;;;;;;;;;;;6.00;71.97;102888.31;5011282;28;20399;-80
2022/03/01 09:35:12;;;;;;;;;;;;;;;6.05;71.19;102890.09;5009433;28;19918;-80
2022/03/01 09:37:38;;;;;;;;;;;;;;;6.10;69.98;102889.25;5007979;28;19918;-79
2022/03/01 09:40:04;;;;;;;;;;;;;;;6.12;68.52;102881.41;5009065;28;20335;-80
2022/03/01 09:42:30;;;;;;;;;;;;;;;6.18;69.84;102891.88;5014210;28;19929;-79
2022/03/01 09:44:56;;;;;;;;;;;;;;;6.11;69.72;102897.94;5011199;28;19964;-81
2022/03/01 09:47:21;;;;;;;;;;;;;;;5.95;70.92;102897.84;5008094;28;19917;-79
2022/03/01 09:49:47;;;;;;;;;;;;;;;5.70;72.12;102904.59;5009990;28;19917;-76
2022/03/01 09:52:13;;;;;;;;;;;;;;;5.58;74.02;102915.81;5007596;28;20558;-76
2022/03/01 09:54:38;;;;;;;;;;;;;;;5.63;73.69;102916.72;5006988;28;20427;-76
2022/03/01 09:57:03;;;;;;;;;;;;;;;5.52;73.99;102916.66;5007801;28;20000;-77
2022/03/01 09:59:28;;;;;;;;;;;;;;;5.62;74.26;102915.00;5007084;28;20387;-77
2022/03/01 10:01:54;;;;;;;;;;;;;;;5.71;75.21;102920.28;5011690;28;19926;-75
2022/03/01 10:04:19;;;;;;;;;;;;;;;5.66;75.32;102916.75;5013327;28;19917;-76
2022/03/01 10:06:46;;;;;;;;;;;;;;;5.56;75.20;102914.94;5006828;28;20005;-75
2022/03/01 10:09:12;;;;;;;;;;;;;;;5.55;76.45;102918.41;5007973;28;19926;-75
2022/03/01 10:11:37;;;;;;;;;;;;;;;5.25;76.67;102927.72;5008491;28;20372;-75
2022/03/01 10:14:03;;;;;;;;;;;;;;;5.04;77.10;102926.66;5009392;28;19936;-76
2022/03/01 10:16:35;;;;;;;;;;;;;;;5.00;77.53;102927.47;5011196;28;19917;-78
2022/03/01 10:19:01;;;;;;;;;;;;;;;4.89;78.72;102927.38;5018258;28;20361;-75
2022/03/01 10:21:26;;;;;;;;;;;;;;;4.85;78.93;102933.38;5026078;28;19928;-78
2022/03/01 10:23:52;;;;;;;;;;;;;;;4.79;79.62;102928.13;5018579;28;19980;-77
2022/03/01 10:26:20;;;;;;;;;;;;;;;4.83;80.54;102929.88;5033231;28;19918;-78
2022/03/01 10:28:46;;;;;;;;;;;;;;;4.94;80.39;102922.19;5012154;28;19929;-77
2022/03/01 10:31:27;;;;;;;;;;;;;;;5.24;80.94;102911.19;5014893;28;19918;-78
2022/03/01 10:33:54;;;;;;;;;;;;;;;5.56;79.92;102913.22;5010684;28;19925;-78
2022/03/01 10:36:20;;;;;;;;;;;;;;;5.80;78.58;102906.41;5025145;28;19917;-80
2022/03/01 10:39:01;;;;;;;;;;;;;;;5.94;79.62;102906.53;5012227;28;19918;-77
2022/03/01 10:41:28;;;;;;;;;;;;;;;5.95;79.00;102908.28;5008197;28;19936;-81
2022/03/01 10:43:54;;;;;;;;;;;;;;;6.31;78.90;102906.72;5009367;28;20015;-79
2022/03/01 10:46:20;;;;;;;;;;;;;;;6.40;77.66;102903.28;5003058;28;19954;-80
2022/03/01 10:48:45;;;;;;;;;;;;;;;6.30;76.90;102902.38;5006365;28;19939;-81
2022/03/01 10:51:10;;;;;;;;;;;;;;;6.50;76.65;102905.06;5010272;28;19917;-81
2022/03/01 10:53:35;;;;;;;;;;;;;;;6.47;78.11;102910.28;5002010;28;19918;-80
2022/03/01 10:56:03;;;;;;;;;;;;;;;6.42;76.03;102895.44;5008927;28;20278;-78
2022/03/01 10:58:28;;;;;;;;;;;;;;;6.59;74.93;102900.75;5011208;28;19925;-80
2022/03/01 11:00:53;;;;;;;;;;;;;;;6.46;75.10;102899.84;5007707;28;19926;-77
2022/03/01 11:03:19;;;;;;;;;;;;;;;6.73;73.77;102900.78;5007757;28;20388;-75
2022/03/01 11:05:44;;;;;;;;;;;;;;;6.69;73.77;102891.19;5006806;28;19964;-75
2022/03/01 11:08:10;;;;;;;;;;;;;;;6.49;74.40;102887.66;5021416;28;19926;-75
2022/03/01 11:10:36;;;;;;;;;;;;;;;6.54;75.74;102902.47;5010373;28;19926;-86
2022/03/01 11:13:03;;;;;;;;;;;;;;;6.65;74.92;102896.41;5014652;28;19925;-86
2022/03/01 11:15:37;;;;;;;;;;;;;;;6.68;76.01;102897.28;5017359;28;20023;-87
2022/03/01 11:18:02;;;;;;;;;;;;;;;6.35;77.20;102899.78;5021913;28;19921;-74
2022/03/01 11:20:43;;;;;;;;;;;;;;;6.28;77.28;102898.00;5026071;28;19925;-77
2022/03/01 11:23:10;;;;;;;;;;;;;;;6.63;76.08;102890.31;4995456;28;20344;-78
2022/03/01 11:25:38;;;;;;;;;;;;;;;6.42;78.04;102905.91;5014695;28;19917;-79
2022/03/01 11:28:05;;;;;;;;;;;;;;;6.36;78.44;102900.66;5004239;28;20348;-80
2022/03/01 11:30:51;;;;;;;;;;;;;;;6.62;75.06;102891.16;5010662;28;20422;-78
2022/03/01 11:33:35;;;;;;;;;;;;;;;6.63;74.17;102882.47;5006323;28;19945;-77
2022/03/01 11:36:01;;;;;;;;;;;;;;;6.41;75.21;102891.09;5012147;28;19918;-82
2022/03/01 11:38:28;;;;;;;;;;;;;;;6.55;75.33;102893.78;5014803;28;19917;-86
2022/03/01 11:41:00;;;;;;;;;;;;;;;6.39;75.35;102896.31;5012578;28;19929;-84
2022/03/01 11:43:28;;;;;;;;;;;;;;;6.53;74.68;102890.28;5005156;28;20016;-85
2022/03/01 11:45:54;;;;;;;;;;;;;;;6.71;75.35;102884.25;5015900;28;19968;-84
2022/03/01 11:48:21;;;;;;;;;;;;;;;6.81;75.99;102884.25;5013338;28;19974;-78
2022/03/01 11:50:48;;;;;;;;;;;;;;;6.74;75.35;102879.91;5028123;28;20012;-79
2022/03/01 11:53:16;;;;;;;;;;;;;;;6.80;75.29;102877.28;5011546;28;19917;-78
2022/03/01 11:55:43;;;;;;;;;;;;;;;6.55;75.19;102871.13;5012186;28;19918;-78
2022/03/01 11:58:09;;;;;;;;;;;;;;;6.67;74.14;102875.50;5009081;28;19972;-77
2022/03/01 12:00:36;;;;;;;;;;;;;;;6.86;74.16;102883.41;5011290;28;19925;-79
2022/03/01 12:03:02;;;;;;;;;;;;;;;6.88;74.94;102873.84;5011163;28;19918;-75
2022/03/01 12:05:27;;;;;;;;;;;;;;;6.73;74.45;102882.47;5012239;28;19918;-75
2022/03/01 12:07:53;;;;;;;;;;;;;;;6.17;76.22;102880.56;5013224;28;20767;-77
2022/03/01 12:10:20;;;;;;;;;;;;;;;6.05;77.17;102884.88;5010949;28;19921;-76
2022/03/01 12:12:46;;;;;;;;;;;;;;;6.16;77.28;102881.44;5011990;28;19929;-77
2022/03/01 12:15:12;;;;;;;;;;;;;;;6.12;78.13;102889.25;5010762;28;20001;-76
2022/03/01 12:17:53;;;;;;;;;;;;;;;6.32;77.82;102898.03;5014496;28;19929;-79
2022/03/01 12:20:20;;;;;;;;;;;;;;;6.21;77.24;102899.72;5009712;28;20307;-76
2022/03/01 12:23:03;;;;;;;;;;;;;;;6.37;76.44;102891.97;5012197;28;19924;-75
2022/03/01 12:25:32;;;;;;;;;;;;;;;6.34;76.73;102898.03;5008841;28;20507;-77
2022/03/01 12:28:00;;;;;;;;;;;;;;;6.45;77.02;102892.88;4995611;28;20039;-78
2022/03/01 12:30:25;;;;;;;;;;;;;;;6.60;77.37;102895.53;5009198;28;19936;-79
2022/03/01 12:32:50;;;;;;;;;;;;;;;6.57;76.55;102881.56;5011041;28;20339;-79
2022/03/01 12:35:16;;;;;;;;;;;;;;;6.68;77.12;102876.41;5009896;28;19924;-78
2022/03/01 12:37:41;;;;;;;;;;;;;;;6.79;77.46;102869.44;5012086;28;19924;-78
2022/03/01 12:40:07;;;;;;;;;;;;;;;6.81;76.17;102868.56;5011396;28;19957;-77
2022/03/01 12:42:32;;;;;;;;;;;;;;;6.56;73.63;102859.81;5010832;28;19924;-78
2022/03/01 12:44:57;;;;;;;;;;;;;;;6.51;75.15;102864.16;5012410;28;20011;-79
2022/03/01 12:47:23;;;;;;;;;;;;;;;6.27;76.24;102863.22;5010920;28;20361;-78
2022/03/01 12:49:49;;;;;;;;;;;;;;;6.49;76.56;102860.69;5013605;28;20296;-78